Terminal Aerodrome Forecast
Issued by NWS Huntsville, AL

Home | Current Version | Previous Version | Text Only | Print | Product List | Glossary On
Versions: 1 2 3 4 5 6 7 8 9 10 11 12 13 14 15 16 17 18 19 20 21 22 23 24 25 26 27 28 29 30 31 32 33
000
FTUS44 KHUN 211120
TAFHSV
TAF
KHSV 211120Z 2112/2212 00000KT P6SM SKC
     FM211500 28004KT P6SM SKC
     FM211800 25011KT P6SM FEW250
     FM220200 20005KT P6SM SCT200=

USA.gov is the U.S. government's official web portal to all federal, state and local government web resources and services.